Time;durP1;ratioP1;P1;durP2;ratioP2;P2;SDS_P1;SDS_P2;PMS_P1;PMS_P2;Temp;Humidity;BMP_temperature;BMP_pressure;BME280_temperature;BME280_humidity;BME280_pressure;Samples;Min_cycle;Max_cycle;Signal;HPM_P1;HPM_P2
2022/01/22 00:01:08;;;;;;;18.30;7.47;;;;;;;4.70;94.43;103285.81;5188634;28;20596;-71
2022/01/22 00:03:39;;;;;;;27.77;11.47;;;;;;;4.61;94.65;103283.19;5203683;28;20171;-70
2022/01/22 00:06:11;;;;;;;21.37;7.57;;;;;;;4.67;94.46;103280.63;5190443;28;20547;-72
2022/01/22 00:08:42;;;;;;;12.90;5.50;;;;;;;4.62;94.60;103274.56;5189130;28;20022;-72
2022/01/22 00:11:13;;;;;;;11.77;4.90;;;;;;;4.59;94.86;103275.38;5191118;28;20051;-72
2022/01/22 00:16:45;;;;;;;21.17;5.50;;;;;;;4.64;93.60;103269.34;5167401;28;20092;-72
2022/01/22 00:19:16;;;;;;;13.47;5.23;;;;;;;4.64;94.23;103266.75;5208756;28;20026;-72
2022/01/22 00:21:49;;;;;;;17.10;5.80;;;;;;;4.74;93.95;103270.25;5193366;28;20026;-72
2022/01/22 00:24:20;;;;;;;14.83;5.37;;;;;;;4.64;93.45;103257.25;5194105;28;20030;-72
2022/01/22 00:26:51;;;;;;;10.40;6.17;;;;;;;4.66;93.96;103265.06;5194624;28;20041;-73
2022/01/22 00:29:22;;;;;;;11.50;4.60;;;;;;;4.75;93.55;103272.84;5194067;28;20568;-73
2022/01/22 00:31:54;;;;;;;21.70;4.43;;;;;;;4.71;93.95;103263.34;5196032;28;20038;-73
2022/01/22 00:34:25;;;;;;;13.67;5.37;;;;;;;4.68;93.34;103258.09;5193898;28;20030;-72
2022/01/22 00:36:56;;;;;;;15.60;5.20;;;;;;;4.62;94.26;103246.00;5195189;28;20061;-73
2022/01/22 00:39:27;;;;;;;13.13;5.50;;;;;;;4.74;93.81;103258.16;5195604;28;20062;-72
2022/01/22 00:41:59;;;;;;;18.03;5.83;;;;;;;4.60;93.99;103248.59;5189698;28;20069;-73
2022/01/22 00:44:30;;;;;;;14.53;5.60;;;;;;;4.64;94.66;103257.25;5192379;28;20096;-72
2022/01/22 00:47:02;;;;;;;11.73;3.87;;;;;;;4.64;93.97;103256.38;5193650;28;20038;-72
2022/01/22 00:49:34;;;;;;;12.13;5.20;;;;;;;4.56;94.00;103251.13;5194721;28;20473;-72
2022/01/22 00:52:06;;;;;;;13.63;6.07;;;;;;;4.63;94.35;103249.44;5195189;28;20037;-72
2022/01/22 00:54:37;;;;;;;17.37;4.70;;;;;;;4.44;95.77;103249.34;5193380;28;20039;-72
2022/01/22 00:57:09;;;;;;;15.83;5.80;;;;;;;4.51;95.02;103251.13;5195101;28;20037;-72
2022/01/22 00:59:40;;;;;;;20.70;6.40;;;;;;;4.54;95.64;103260.66;5193316;28;20037;-72
2022/01/22 01:02:11;;;;;;;15.73;5.97;;;;;;;4.64;95.00;103251.19;5193288;28;20425;-72
2022/01/22 01:04:42;;;;;;;14.20;5.10;;;;;;;4.56;94.60;103256.34;5195238;28;20030;-72
2022/01/22 01:07:14;;;;;;;18.03;7.23;;;;;;;4.63;95.01;103272.81;5193356;28;20038;-73
2022/01/22 01:09:45;;;;;;;18.47;6.23;;;;;;;4.67;95.00;103270.25;5193868;28;20030;-72
2022/01/22 01:12:16;;;;;;;17.40;5.07;;;;;;;4.57;95.34;103261.53;5193838;28;20051;-72
2022/01/22 01:32:11;;;;;;;13.27;5.70;;;;;;;4.62;94.58;103256.38;5192391;28;20065;-72
2022/01/22 01:34:28;;;;;;;14.53;6.53;;;;;;;4.66;95.15;103271.09;5193734;28;20030;-72
2022/01/22 01:37:00;;;;;;;16.67;7.50;;;;;;;4.67;95.27;103270.25;5194215;28;20109;-72
2022/01/22 01:39:34;;;;;;;15.77;6.40;;;;;;;4.73;94.85;103261.59;5193907;28;20057;-72
2022/01/22 01:42:10;;;;;;;17.80;6.80;;;;;;;4.68;95.23;103268.50;5193660;28;20030;-72
2022/01/22 01:44:41;;;;;;;17.90;7.10;;;;;;;4.66;95.70;103267.66;5193053;28;20787;-73
2022/01/22 01:47:16;;;;;;;15.00;7.27;;;;;;;4.71;95.78;103268.53;5192531;28;20092;-72
2022/01/22 01:49:47;;;;;;;19.70;6.53;;;;;;;4.73;95.95;103277.16;5194141;28;20148;-72
2022/01/22 01:52:26;;;;;;;12.93;7.10;;;;;;;4.63;96.95;103267.59;5193770;28;20109;-72
2022/01/22 01:55:04;;;;;;;12.90;7.33;;;;;;;4.69;96.13;103272.84;5193480;28;20027;-73
2022/01/22 01:57:41;;;;;;;18.90;8.23;;;;;;;4.73;96.80;103279.75;5193039;28;20019;-72
2022/01/22 02:00:25;;;;;;;21.20;8.00;;;;;;;4.78;96.56;103270.28;5193137;28;20026;-73
2022/01/22 02:02:58;;;;;;;15.40;7.28;;;;;;;4.77;96.54;103262.47;5209317;23;20057;-72
2022/01/22 02:05:32;;;;;;;18.23;7.70;;;;;;;4.57;97.20;103258.94;5213630;28;20057;-73
2022/01/22 02:08:03;;;;;;;19.77;8.53;;;;;;;4.70;96.80;103261.59;5213265;28;20034;-72
2022/01/22 02:10:40;;;;;;;14.53;8.80;;;;;;;4.70;96.95;103262.47;5213761;28;20030;-72
2022/01/22 02:24:30;;;;;;;24.47;10.07;;;;;;;4.69;97.47;103260.75;5213487;28;20049;-70
2022/01/22 02:27:02;;;;;;;19.07;11.37;;;;;;;4.50;98.15;103253.72;5213459;28;20480;-71
2022/01/22 02:29:33;;;;;;;22.70;10.20;;;;;;;4.71;97.55;103263.34;5212769;28;20026;-70
2022/01/22 02:35:05;;;;;;;18.47;11.03;;;;;;;4.46;99.16;103238.13;5213243;28;20034;-72
2022/01/22 02:37:41;;;;;;;21.97;12.50;;;;;;;4.64;99.87;103256.38;5199267;28;20034;-72
2022/01/22 02:40:24;;;;;;;25.27;14.07;;;;;;;4.74;99.99;103259.88;5191916;28;20023;-72
2022/01/22 02:42:55;;;;;;;20.30;12.50;;;;;;;4.57;99.41;103229.53;5204025;28;20025;-72
2022/01/22 02:45:27;;;;;;;21.83;13.37;;;;;;;4.68;100.00;103247.72;5213167;28;20022;-72
2022/01/22 02:47:58;;;;;;;21.20;13.70;;;;;;;4.80;100.00;103265.09;5213636;28;20080;-72
2022/01/22 02:50:29;;;;;;;22.37;14.00;;;;;;;4.58;100.00;103257.22;5211114;28;20140;-72
2022/01/22 02:53:06;;;;;;;23.50;14.20;;;;;;;4.79;99.78;103265.94;5197301;28;20072;-72
2022/01/22 02:55:39;;;;;;;19.60;12.23;;;;;;;4.76;99.75;103261.63;5196685;28;20228;-72
2022/01/22 02:58:10;;;;;;;22.50;13.37;;;;;;;4.76;100.00;103251.25;5211698;28;20021;-73
2022/01/22 03:00:42;;;;;;;27.70;14.57;;;;;;;4.63;100.00;103268.47;5213424;28;20018;-72
2022/01/22 03:03:14;;;;;;;19.80;13.53;;;;;;;4.80;99.75;103271.16;5212610;28;20049;-72
2022/01/22 03:05:45;;;;;;;25.10;15.03;;;;;;;4.71;99.85;103268.53;5213196;28;20028;-72
2022/01/22 03:08:18;;;;;;;24.63;13.10;;;;;;;4.74;100.00;103275.44;5205162;28;20034;-72
2022/01/22 03:10:52;;;;;;;24.40;14.17;;;;;;;4.67;100.00;103266.78;5203339;28;20396;-72
2022/01/22 03:14:13;;;;;;;21.07;13.97;;;;;;;4.57;100.00;103271.06;5211815;28;20065;-72
2022/01/22 03:16:44;;;;;;;20.73;13.80;;;;;;;4.64;100.00;103259.84;5212730;28;20022;-72
2022/01/22 03:27:47;;;;;;;27.37;15.23;;;;;;;4.70;100.00;103259.88;5211907;28;20528;-72
2022/01/22 03:30:19;;;;;;;26.13;15.67;;;;;;;4.77;100.00;103272.84;5212024;28;20030;-72
2022/01/22 03:32:53;;;;;;;24.73;14.87;;;;;;;4.75;100.00;103270.25;5213141;28;20035;-72
2022/01/22 03:35:27;;;;;;;26.33;15.50;;;;;;;4.63;100.00;103270.19;5212406;28;20041;-72
2022/01/22 03:37:58;;;;;;;22.17;16.58;;;;;;;4.75;100.00;103264.22;5212810;28;20041;-72
2022/01/22 03:40:30;;;;;;;26.80;16.40;;;;;;;4.72;100.00;103267.66;5212593;28;20022;-72
2022/01/22 03:43:01;;;;;;;28.60;15.93;;;;;;;4.72;100.00;103272.84;5210007;28;20032;-72
2022/01/22 03:45:32;;;;;;;24.37;15.03;;;;;;;4.77;100.00;103271.16;5211965;28;20069;-72
2022/01/22 03:48:04;;;;;;;23.87;16.17;;;;;;;4.76;100.00;103265.94;5212523;28;20026;-72
2022/01/22 03:50:35;;;;;;;27.67;16.00;;;;;;;4.70;100.00;103275.44;5212254;28;20045;-72
2022/01/22 03:53:07;;;;;;;22.10;16.80;;;;;;;4.73;100.00;103271.97;5212154;28;20096;-72
2022/01/22 03:58:47;;;;;;;28.17;18.97;;;;;;;4.69;100.00;103265.94;5168464;28;20034;-72
2022/01/22 04:04:01;;;;;;;33.77;19.53;;;;;;;4.71;100.00;103255.56;5194476;28;20042;-72
2022/01/22 04:09:08;;;;;;;26.83;20.13;;;;;;;4.65;100.00;103263.28;5212207;28;20034;-72
2022/01/22 04:11:42;;;;;;;25.87;19.57;;;;;;;4.69;100.00;103263.34;5211433;28;20109;-72
2022/01/22 04:14:19;;;;;;;28.98;21.08;;;;;;;4.70;100.00;103267.66;5210073;28;20704;-72
2022/01/22 04:17:07;;;;;;;30.53;22.53;;;;;;;4.62;100.00;103263.28;5212580;28;20084;-72
2022/01/22 04:25:23;;;;;;;32.50;23.73;;;;;;;4.73;100.00;103261.59;5211479;28;20033;-72
2022/01/22 04:27:54;;;;;;;33.50;24.27;;;;;;;4.69;100.00;103260.75;5211357;28;20026;-72
2022/01/22 04:30:28;;;;;;;30.67;24.47;;;;;;;4.70;100.00;103251.19;5211982;28;20069;-72
2022/01/22 04:33:00;;;;;;;38.77;23.83;;;;;;;4.74;100.00;103257.28;5212651;28;20724;-72
2022/01/22 04:35:32;;;;;;;42.40;24.43;;;;;;;4.78;100.00;103265.06;5212510;28;20072;-72
2022/01/22 04:38:03;;;;;;;38.30;22.67;;;;;;;4.80;100.00;103263.34;5211722;28;20965;-72
2022/01/22 04:40:34;;;;;;;34.60;24.43;;;;;;;4.80;100.00;103260.75;5212032;28;20040;-72
2022/01/22 04:43:06;;;;;;;34.80;24.87;;;;;;;4.73;100.00;103261.59;5210482;28;20022;-72
2022/01/22 04:48:41;;;;;;;45.47;26.33;;;;;;;4.84;100.00;103270.31;5211456;28;20121;-72
2022/01/22 04:56:52;;;;;;;39.83;25.27;;;;;;;4.83;100.00;103267.72;5205924;28;20396;-72
2022/01/22 04:59:23;;;;;;;37.30;25.33;;;;;;;4.82;100.00;103266.84;5215727;28;20034;-72
2022/01/22 05:01:55;;;;;;;38.97;26.03;;;;;;;4.81;100.00;103261.63;5214617;28;20076;-72
2022/01/22 05:04:26;;;;;;;35.63;24.77;;;;;;;4.78;100.00;103259.88;5215467;28;20030;-72
2022/01/22 05:06:57;;;;;;;32.47;24.10;;;;;;;4.76;100.00;103266.81;5213837;28;20106;-72
2022/01/22 05:09:29;;;;;;;39.63;26.80;;;;;;;4.83;100.00;103268.56;5214764;28;20040;-72
2022/01/22 05:12:00;;;;;;;35.43;25.63;;;;;;;4.84;100.00;103261.63;5214999;28;20033;-72
2022/01/22 05:14:32;;;;;;;36.10;24.83;;;;;;;4.86;100.00;103262.53;5215114;28;20014;-72
2022/01/22 05:17:06;;;;;;;36.03;25.17;;;;;;;4.84;100.00;103259.91;5214050;28;20060;-72
2022/01/22 05:19:49;;;;;;;45.33;25.37;;;;;;;4.77;100.00;103265.94;5195074;28;20026;-72
2022/01/22 05:22:37;;;;;;;36.47;23.30;;;;;;;4.86;100.00;103264.25;5215429;28;20363;-72
2022/01/22 05:25:15;;;;;;;35.20;24.13;;;;;;;4.84;100.00;103264.25;5214042;28;20414;-72
2022/01/22 05:28:01;;;;;;;46.60;26.30;;;;;;;4.86;100.00;103259.03;5213812;28;20037;-72
2022/01/22 05:33:34;;;;;;;32.80;24.13;;;;;;;4.91;100.00;103270.31;5214877;28;20037;-72
2022/01/22 05:38:55;;;;;;;36.27;24.70;;;;;;;4.92;100.00;103257.34;5214804;28;20038;-72
2022/01/22 05:41:26;;;;;;;41.13;26.70;;;;;;;4.73;100.00;103256.41;5214438;28;20034;-72
2022/01/22 05:43:57;;;;;;;36.20;24.33;;;;;;;4.93;100.00;103255.63;5213991;28;20029;-72
2022/01/22 05:46:29;;;;;;;33.50;25.30;;;;;;;4.89;100.00;103259.06;5214186;28;20041;-72
2022/01/22 05:49:00;;;;;;;38.53;24.57;;;;;;;4.90;100.00;103245.22;5214909;28;20415;-72
2022/01/22 05:51:32;;;;;;;32.00;23.73;;;;;;;4.84;100.00;103254.72;5214058;28;20022;-72
2022/01/22 05:59:44;;;;;;;38.50;25.63;;;;;;;4.89;100.00;103261.66;5214590;28;20037;-72
2022/01/22 06:02:17;;;;;;;39.87;25.27;;;;;;;4.96;100.00;103266.00;5213876;28;20034;-72
2022/01/22 06:04:49;;;;;;;37.13;24.53;;;;;;;4.83;100.00;103250.38;5214545;28;20036;-72
2022/01/22 06:07:20;;;;;;;35.80;23.20;;;;;;;4.77;100.00;103252.09;5213526;28;20022;-71
2022/01/22 06:12:43;;;;;;;34.80;24.23;;;;;;;4.91;100.00;103275.50;5212723;28;20381;-72
2022/01/22 06:15:15;;;;;;;33.13;24.00;;;;;;;4.90;100.00;103268.59;5214338;28;20116;-72
2022/01/22 06:17:46;;;;;;;41.63;24.77;;;;;;;4.77;100.00;103271.16;5212085;28;20104;-72
2022/01/22 06:20:17;;;;;;;42.30;24.63;;;;;;;4.89;100.00;103274.63;5213954;28;20037;-72
2022/01/22 06:22:49;;;;;;;35.67;24.87;;;;;;;4.89;100.00;103269.44;5213844;28;20626;-72
2022/01/22 06:25:20;;;;;;;33.63;24.10;;;;;;;4.93;100.00;103276.38;5213805;28;20109;-72
2022/01/22 06:27:51;;;;;;;39.27;25.07;;;;;;;4.92;100.00;103261.69;5212967;28;20033;-72
2022/01/22 06:30:23;;;;;;;37.60;24.07;;;;;;;4.93;100.00;103253.91;5213391;28;20030;-72
2022/01/22 06:32:54;;;;;;;34.20;23.47;;;;;;;4.88;100.00;103249.53;5213565;28;20040;-72
2022/01/22 06:35:26;;;;;;;35.57;23.20;;;;;;;4.92;100.00;103264.28;5218224;28;20022;-72
2022/01/22 06:38:00;;;;;;;34.20;23.40;;;;;;;5.03;100.00;103272.97;5218511;28;20045;-72
2022/01/22 06:43:04;;;;;;;32.13;22.00;;;;;;;4.94;100.00;103276.38;5212577;28;20080;-72
2022/01/22 06:45:35;;;;;;;39.97;24.40;;;;;;;4.97;100.00;103284.19;5217393;28;20018;-71
2022/01/22 06:48:06;;;;;;;33.87;24.07;;;;;;;4.86;100.00;103287.63;5213886;28;20029;-72
2022/01/22 06:50:38;;;;;;;34.07;22.93;;;;;;;4.89;100.00;103288.50;5211852;28;20029;-72
2022/01/22 06:53:09;;;;;;;37.77;23.47;;;;;;;4.97;100.00;103286.78;5212795;28;20038;-72
2022/01/22 06:55:42;;;;;;;37.57;22.50;;;;;;;5.05;100.00;103293.75;5211557;28;20396;-72
2022/01/22 06:58:13;;;;;;;34.87;22.40;;;;;;;4.88;100.00;103285.91;5210042;28;20421;-72
2022/01/22 07:00:45;;;;;;;33.60;21.23;;;;;;;4.90;100.00;103297.16;5199721;28;20021;-72
2022/01/22 07:03:16;;;;;;;32.23;23.43;;;;;;;4.86;100.00;103282.41;5212447;28;20057;-72
2022/01/22 07:05:47;;;;;;;40.87;22.20;;;;;;;5.01;100.00;103298.06;5213117;28;20088;-72
2022/01/22 07:08:18;;;;;;;37.77;21.43;;;;;;;4.89;100.00;103290.22;5212686;28;20109;-72
2022/01/22 07:10:50;;;;;;;34.67;22.53;;;;;;;5.10;100.00;103296.38;5212656;28;20034;-72
2022/01/22 07:13:21;;;;;;;31.27;21.13;;;;;;;5.08;100.00;103299.81;5212203;28;20109;-72
2022/01/22 07:15:52;;;;;;;30.70;22.27;;;;;;;5.14;100.00;103311.09;5211391;28;20038;-72
2022/01/22 07:18:24;;;;;;;29.57;20.37;;;;;;;5.09;100.00;103311.09;5213352;28;20044;-72
2022/01/22 07:20:56;;;;;;;27.80;20.47;;;;;;;5.05;100.00;103323.19;5199090;28;20058;-72
2022/01/22 07:26:08;;;;;;;36.87;21.43;;;;;;;4.93;100.00;103325.72;5192918;28;20042;-72
2022/01/22 07:28:39;;;;;;;30.90;21.90;;;;;;;5.07;100.00;103323.19;5191286;28;20022;-72
2022/01/22 07:31:11;;;;;;;34.83;21.43;;;;;;;5.15;100.00;103323.22;5194660;28;20140;-71
2022/01/22 07:33:42;;;;;;;38.63;22.13;;;;;;;5.05;100.00;103323.19;5216225;28;20030;-72
2022/01/22 07:36:13;;;;;;;34.43;20.20;;;;;;;5.16;100.00;103332.75;5212543;28;20480;-72
2022/01/22 07:38:45;;;;;;;34.57;21.33;;;;;;;5.17;100.00;103331.88;5211203;28;20433;-72
2022/01/22 07:41:16;;;;;;;34.00;21.17;;;;;;;5.10;100.00;103332.75;5212324;28;20653;-72
2022/01/22 07:43:48;;;;;;;32.97;19.80;;;;;;;5.10;100.00;103331.00;5211378;28;20030;-72
2022/01/22 07:46:20;;;;;;;32.47;19.63;;;;;;;5.11;100.00;103340.53;5204646;28;20552;-72
2022/01/22 07:48:53;;;;;;;32.40;19.90;;;;;;;5.07;100.00;103328.38;5212446;28;20061;-72
2022/01/22 07:51:24;;;;;;;31.33;20.40;;;;;;;5.06;100.00;103337.91;5211717;28;20416;-72
2022/01/22 07:53:55;;;;;;;31.60;20.50;;;;;;;4.97;100.00;103337.88;5211316;28;20033;-72
2022/01/22 07:56:27;;;;;;;38.27;20.07;;;;;;;5.18;100.00;103336.22;5205571;28;20041;-72
2022/01/22 07:58:59;;;;;;;28.30;20.83;;;;;;;5.14;100.00;103330.16;5202993;28;20040;-72
2022/01/22 08:01:30;;;;;;;35.47;19.93;;;;;;;4.93;100.00;103317.94;5204375;28;20034;-72
2022/01/22 08:04:01;;;;;;;35.80;19.10;;;;;;;5.07;100.00;103329.25;5211756;28;20052;-72
2022/01/22 08:06:33;;;;;;;37.57;20.80;;;;;;;5.11;100.00;103334.47;5210862;28;20116;-72
2022/01/22 08:09:05;;;;;;;35.30;20.50;;;;;;;5.13;100.00;103333.59;5210734;28;20113;-72
2022/01/22 08:11:36;;;;;;;33.23;20.37;;;;;;;5.21;100.00;103338.84;5209940;28;20117;-71
2022/01/22 08:14:09;;;;;;;31.80;18.77;;;;;;;5.23;100.00;103334.50;5212224;28;20157;-72
2022/01/22 08:16:40;;;;;;;32.63;19.83;;;;;;;5.20;100.00;103329.31;5211736;28;20038;-72
2022/01/22 08:19:13;;;;;;;32.90;21.13;;;;;;;5.14;100.00;103327.56;5202847;28;20026;-72
2022/01/22 08:21:45;;;;;;;34.70;19.40;;;;;;;5.23;100.00;103331.91;5211935;28;20070;-72
2022/01/22 08:24:19;;;;;;;33.57;20.20;;;;;;;5.23;100.00;103331.91;5208097;28;20037;-72
2022/01/22 08:27:06;;;;;;;35.37;21.27;;;;;;;5.29;100.00;103339.72;5203946;28;20096;-72
2022/01/22 08:29:37;;;;;;;31.47;19.43;;;;;;;5.30;100.00;103336.28;5211270;28;20339;-73
2022/01/22 08:37:30;;;;;;;30.30;19.70;;;;;;;5.27;100.00;103343.19;5215391;28;20639;-71
2022/01/22 08:40:04;;;;;;;31.33;20.03;;;;;;;5.29;100.00;103331.03;5209564;28;20030;-71
2022/01/22 08:42:36;;;;;;;33.30;18.10;;;;;;;5.33;100.00;103335.41;5214572;28;20026;-76
2022/01/22 08:45:07;;;;;;;27.90;17.30;;;;;;;5.30;100.00;103330.19;5205468;28;20026;-71
2022/01/22 08:47:39;;;;;;;28.70;18.67;;;;;;;5.29;100.00;103316.31;5209928;28;20030;-72
2022/01/22 08:50:11;;;;;;;28.73;16.70;;;;;;;5.17;100.00;103295.50;5211920;28;20026;-72
2022/01/22 08:52:42;;;;;;;29.93;17.37;;;;;;;5.40;100.00;103323.28;5201681;28;20069;-72
2022/01/22 08:55:13;;;;;;;29.30;16.60;;;;;;;5.48;100.00;103331.94;5200162;28;20052;-72
2022/01/22 08:57:49;;;;;;;34.10;17.80;;;;;;;5.49;100.00;103338.91;5211912;28;20041;-73
2022/01/22 09:00:22;;;;;;;25.63;16.47;;;;;;;5.33;100.00;103323.28;5213949;28;20026;-71
2022/01/22 09:02:53;;;;;;;27.50;16.23;;;;;;;5.42;100.00;103344.94;5214591;28;20232;-70
2022/01/22 09:05:31;;;;;;;26.50;16.67;;;;;;;5.56;100.00;103353.66;5212749;28;20101;-70
2022/01/22 09:08:04;;;;;;;29.67;15.37;;;;;;;5.54;100.00;103355.38;5211243;28;20192;-70
2022/01/22 09:10:36;;;;;;;29.03;15.67;;;;;;;5.63;100.00;103364.06;5207278;28;20030;-70
2022/01/22 09:13:07;;;;;;;24.10;15.30;;;;;;;5.61;100.00;103360.59;5213350;28;20026;-70
2022/01/22 09:15:39;;;;;;;26.10;15.50;;;;;;;5.54;100.00;103365.78;5216346;28;20022;-70
2022/01/22 09:18:11;;;;;;;23.50;14.77;;;;;;;5.61;100.00;103365.78;5213769;28;20030;-70
2022/01/22 09:20:55;;;;;;;24.80;15.57;;;;;;;5.65;100.00;103370.13;5212392;28;20488;-72
2022/01/22 09:23:27;;;;;;;30.25;16.60;;;;;;;5.68;100.00;103373.59;5203454;28;20621;-70
2022/01/22 09:25:59;;;;;;;28.57;15.57;;;;;;;5.55;100.00;103357.09;5208131;28;20033;-71
2022/01/22 09:28:32;;;;;;;29.57;15.73;;;;;;;5.69;100.00;103374.44;5208493;28;20041;-71
2022/01/22 09:31:03;;;;;;;27.10;15.83;;;;;;;5.66;100.00;103374.47;5205985;28;20076;-71
2022/01/22 09:33:35;;;;;;;24.93;15.17;;;;;;;5.67;100.00;103363.22;5202591;28;20057;-70
2022/01/22 09:36:06;;;;;;;22.37;15.00;;;;;;;5.69;100.00;103353.66;5200564;28;20100;-72
2022/01/22 09:38:37;;;;;;;24.97;15.63;;;;;;;5.75;100.00;103369.28;5201677;28;20515;-72
2022/01/22 09:41:09;;;;;;;26.13;15.87;;;;;;;5.71;100.00;103369.28;5202336;28;20025;-71
2022/01/22 09:43:40;;;;;;;22.50;15.07;;;;;;;5.70;100.00;103376.22;5203062;28;20050;-71
2022/01/22 09:46:12;;;;;;;30.40;15.20;;;;;;;5.82;100.00;103388.38;5199222;28;20021;-71
2022/01/22 09:48:46;;;;;;;25.90;16.20;;;;;;;5.78;100.00;103390.09;5211211;28;20435;-73
2022/01/22 09:51:17;;;;;;;28.60;16.98;;;;;;;5.75;100.00;103392.69;5206707;28;20028;-71
2022/01/22 09:53:49;;;;;;;23.60;15.33;;;;;;;5.84;100.00;103401.38;5219326;28;20532;-72
2022/01/22 09:56:23;;;;;;;30.27;15.83;;;;;;;5.75;100.00;103392.69;5212340;28;20026;-72
2022/01/22 09:58:55;;;;;;;25.08;15.57;;;;;;;5.77;100.00;103395.28;5213150;28;20496;-73
2022/01/22 10:01:29;;;;;;;33.37;15.47;;;;;;;5.78;100.00;103387.47;5208611;28;20091;-73
2022/01/22 10:04:04;;;;;;;23.90;15.37;;;;;;;5.75;100.00;103392.69;5159323;28;1014886;-69
2022/01/22 10:06:49;;;;;;;25.75;15.07;;;;;;;5.93;100.00;103401.38;5210459;28;20062;-69
2022/01/22 10:09:33;;;;;;;;;;;;;;;6.02;100.00;103398.78;5212107;28;20026;-69
2022/01/22 10:12:09;;;;;;;23.17;14.47;;;;;;;5.88;100.00;103387.50;5211980;28;19918;-69
2022/01/22 10:15:02;;;;;;;25.20;15.30;;;;;;;5.98;100.00;103398.78;5212970;28;20030;-73
2022/01/22 10:17:47;;;;;;;28.97;15.17;;;;;;;5.99;100.00;103403.09;5204404;28;20030;-72
2022/01/22 10:20:22;;;;;;;27.77;15.27;;;;;;;5.99;100.00;103396.19;5201028;28;20034;-72
2022/01/22 10:23:01;;;;;;;30.45;16.30;;;;;;;5.89;100.00;103397.91;5201360;28;20033;-72
2022/01/22 10:25:42;;;;;;;24.27;15.77;;;;;;;5.91;100.00;103396.19;5201484;28;20045;-72
2022/01/22 10:28:22;;;;;;;24.90;15.03;;;;;;;5.96;100.00;103395.31;5201591;28;20061;-72
2022/01/22 10:31:03;;;;;;;24.27;14.87;;;;;;;5.90;100.00;103389.22;5203628;28;20033;-72
2022/01/22 10:33:35;;;;;;;22.80;14.60;;;;;;;5.92;100.00;103403.13;5200561;28;20049;-72
2022/01/22 10:36:17;;;;;;;25.77;15.23;;;;;;;5.95;100.00;103409.19;5202435;28;20112;-72
2022/01/22 10:38:53;;;;;;;28.83;15.17;;;;;;;6.01;100.00;103412.66;5200054;28;20030;-73
2022/01/22 10:41:42;;;;;;;26.30;15.70;;;;;;;6.08;100.00;103402.28;5200033;28;20096;-73
2022/01/22 10:44:18;;;;;;;21.80;15.47;;;;;;;6.03;100.00;103405.72;5201482;28;20018;-72
2022/01/22 10:47:02;;;;;;;29.57;16.90;;;;;;;5.95;100.00;103385.78;5203460;28;20440;-72
2022/01/22 10:49:33;;;;;;;28.23;15.90;;;;;;;6.02;100.00;103398.78;5213218;28;20049;-73
2022/01/22 10:52:04;;;;;;;28.70;15.80;;;;;;;6.05;100.00;103409.25;5211958;28;20068;-73
2022/01/22 10:54:37;;;;;;;26.93;17.57;;;;;;;6.03;100.00;103410.06;5211232;28;20037;-73
2022/01/22 10:57:23;;;;;;;26.27;16.77;;;;;;;6.10;100.00;103405.75;5211601;28;20829;-71
2022/01/22 10:59:55;;;;;;;31.37;16.57;;;;;;;6.04;100.00;103407.44;5209554;28;20028;-71
2022/01/22 11:02:32;;;;;;;24.73;17.17;;;;;;;6.10;100.00;103414.44;5203426;28;20042;-70
2022/01/22 11:05:05;;;;;;;25.80;16.50;;;;;;;6.03;100.00;103400.53;5210718;28;20481;-70
2022/01/22 11:07:36;;;;;;;27.17;17.73;;;;;;;6.01;100.00;103397.06;5201984;28;20014;-70
2022/01/22 11:10:08;;;;;;;21.57;15.80;;;;;;;6.05;100.00;103398.84;5197722;28;20045;-75
2022/01/22 11:12:39;;;;;;;29.57;18.07;;;;;;;6.08;100.00;103397.06;5203672;28;20033;-71
2022/01/22 11:15:10;;;;;;;26.70;17.40;;;;;;;6.09;100.00;103404.03;5195100;28;20034;-72
2022/01/22 11:17:42;;;;;;;26.17;16.40;;;;;;;5.99;100.00;103387.50;5199492;28;20128;-74
2022/01/22 11:20:13;;;;;;;27.00;17.80;;;;;;;6.01;100.00;103397.06;5210418;28;20041;-73
2022/01/22 11:22:46;;;;;;;31.10;17.80;;;;;;;6.05;100.00;103383.22;5200841;28;20076;-73
2022/01/22 11:25:19;;;;;;;26.23;16.17;;;;;;;6.11;100.00;103382.34;5202139;28;20068;-75
2022/01/22 11:27:51;;;;;;;28.87;15.83;;;;;;;6.16;100.00;103374.56;5198460;28;20365;-76
2022/01/22 11:30:25;;;;;;;22.33;16.20;;;;;;;6.15;100.00;103373.69;5196283;28;20033;-73
2022/01/22 11:33:08;;;;;;;26.38;18.52;;;;;;;6.20;100.00;103383.19;5200570;28;20439;-73
2022/01/22 11:35:53;;;;;;;26.23;19.03;;;;;;;6.23;100.00;103381.47;5208791;28;20026;-72
2022/01/22 11:38:27;;;;;;;;;;;;;;;6.32;100.00;103382.34;5208677;28;20034;-72
2022/01/22 11:41:03;;;;;;;24.97;18.07;;;;;;;6.20;100.00;103380.59;5190262;28;19920;-73
2022/01/22 11:44:10;;;;;;;23.97;18.43;;;;;;;6.26;100.00;103378.88;5195875;28;20121;-74
2022/01/22 11:46:50;;;;;;;28.27;19.80;;;;;;;6.20;100.00;103381.47;5196859;28;20021;-72
2022/01/22 11:49:31;;;;;;;29.13;20.17;;;;;;;6.20;100.00;103371.06;5209975;28;20047;-72
2022/01/22 11:52:11;;;;;;;29.53;20.23;;;;;;;6.16;100.00;103369.34;5204596;28;20037;-75
2022/01/22 11:54:56;;;;;;;26.37;19.93;;;;;;;6.23;100.00;103376.25;5198683;28;21016;-73
2022/01/22 11:57:30;;;;;;;27.02;20.20;;;;;;;6.25;100.00;103374.53;5196655;28;20425;-71
2022/01/22 12:00:26;;;;;;;28.40;20.48;;;;;;;6.28;100.00;103363.25;5198284;28;20049;-70
2022/01/22 12:03:03;;;;;;;36.20;21.10;;;;;;;6.29;100.00;103378.88;5198691;28;20129;-70
2022/01/22 12:05:54;;;;;;;29.50;21.37;;;;;;;6.27;100.00;103370.19;5203815;28;20049;-71
2022/01/22 12:08:26;;;;;;;32.67;21.63;;;;;;;6.34;100.00;103380.59;5200000;28;20032;-71
2022/01/22 12:16:40;;;;;;;31.93;20.47;;;;;;;6.47;100.00;103379.72;5204046;28;20037;-72
2022/01/22 12:19:36;;;;;;;33.27;21.73;;;;;;;6.44;100.00;103374.50;5204307;28;20400;-76
2022/01/22 12:22:50;;;;;;;34.60;21.77;;;;;;;6.45;100.00;103368.44;5203494;28;20108;-74
2022/01/22 12:25:21;;;;;;;40.93;23.47;;;;;;;6.34;100.00;103377.97;5196975;28;20057;-70
2022/01/22 12:27:53;;;;;;;31.20;21.57;;;;;;;6.33;100.00;103374.53;5201381;28;20565;-70
2022/01/22 12:30:45;;;;;;;30.83;22.50;;;;;;;6.33;100.00;103382.34;5202940;28;20030;-71
2022/01/22 12:33:28;;;;;;;27.73;20.27;;;;;;;6.36;100.00;103384.06;5203108;28;20152;-71
2022/01/22 12:36:03;;;;;;;34.47;22.47;;;;;;;6.32;100.00;103380.59;5203818;28;20094;-72
2022/01/22 12:38:48;;;;;;;;;;;;;;;6.46;100.00;103385.78;5201276;28;20592;-72
2022/01/22 12:44:25;;;;;;;28.43;21.97;;;;;;;6.35;100.00;103377.13;5203842;28;20123;-71
2022/01/22 12:47:02;;;;;;;33.13;23.10;;;;;;;6.29;100.00;103378.00;5203533;28;20026;-80
2022/01/22 12:49:36;;;;;;;30.87;22.90;;;;;;;6.28;100.00;103374.53;5202910;28;21662;-78
2022/01/22 12:52:10;;;;;;;39.03;25.08;;;;;;;6.27;100.00;103383.22;5203003;28;20062;-77
2022/01/22 12:54:46;;;;;;;32.77;23.57;;;;;;;6.28;100.00;103382.31;5201880;28;20018;-84
2022/01/22 12:57:18;;;;;;;36.27;23.53;;;;;;;6.13;100.00;103380.59;5199256;28;20037;-75
2022/01/22 13:02:41;;;;;;;32.50;22.77;;;;;;;6.22;100.00;103374.53;5201715;28;20066;-77
2022/01/22 13:05:18;;;;;;;33.27;24.00;;;;;;;6.31;100.00;103383.19;5202321;28;20917;-76
2022/01/22 13:07:56;;;;;;;31.90;22.60;;;;;;;6.26;100.00;103378.88;5201686;28;20120;-73
2022/01/22 13:10:36;;;;;;;35.87;23.33;;;;;;;6.23;100.00;103381.47;5202614;28;20480;-73
2022/01/22 13:13:07;;;;;;;31.00;21.73;;;;;;;6.16;100.00;103369.34;5202373;28;20018;-72
2022/01/22 13:15:39;;;;;;;43.30;24.47;;;;;;;6.31;100.00;103378.00;5201399;28;20057;-73
2022/01/22 13:18:10;;;;;;;39.40;23.00;;;;;;;6.36;100.00;103381.47;5200677;28;20038;-73
2022/01/22 13:20:42;;;;;;;34.43;22.83;;;;;;;6.27;100.00;103367.59;5202384;28;20025;-73
2022/01/22 13:23:17;;;;;;;30.17;22.83;;;;;;;6.24;100.00;103375.41;5203004;28;20508;-72
2022/01/22 13:25:49;;;;;;;28.73;22.17;;;;;;;6.17;100.00;103376.28;5202419;28;20041;-76